createdAt,value
2018-07-07T00:00:38.811Z,0.00
2018-07-07T00:01:38.872Z,0.00
2018-07-07T00:03:31.865Z,0.00
2018-07-07T00:04:31.927Z,0.00
2018-07-07T00:06:24.928Z,0.00
2018-07-07T00:07:24.984Z,0.00
2018-07-07T00:09:17.977Z,0.00
2018-07-07T00:10:18.041Z,0.00
2018-07-07T00:12:11.041Z,0.00
2018-07-07T00:13:11.096Z,0.00
2018-07-07T00:15:04.095Z,0.00
2018-07-07T00:16:04.152Z,0.00
2018-07-07T00:17:57.143Z,0.00
2018-07-07T00:18:57.208Z,0.00
2018-07-07T00:20:50.209Z,0.00
2018-07-07T00:21:50.263Z,0.00
2018-07-07T00:23:43.256Z,0.00
2018-07-07T00:24:43.316Z,0.00
2018-07-07T00:26:36.317Z,0.00
2018-07-07T00:27:36.381Z,0.00
2018-07-07T00:29:29.371Z,0.00
2018-07-07T00:30:29.433Z,0.00
2018-07-07T00:32:22.432Z,0.00
2018-07-07T00:33:22.489Z,0.00
2018-07-07T00:35:15.489Z,0.00
2018-07-07T00:36:15.546Z,0.00
2018-07-07T00:38:08.539Z,0.00
2018-07-07T00:39:08.609Z,0.00
2018-07-07T00:41:01.608Z,0.00
2018-07-07T00:42:01.659Z,0.00
2018-07-07T00:43:54.652Z,0.00
2018-07-07T00:44:54.736Z,0.00
2018-07-07T00:46:47.718Z,0.00
2018-07-07T00:47:47.775Z,0.00
2018-07-07T00:49:40.782Z,0.00
2018-07-07T00:50:40.831Z,0.00
2018-07-07T00:52:33.829Z,0.00
2018-07-07T00:53:33.891Z,0.00
2018-07-07T00:55:26.904Z,0.00
2018-07-07T00:56:26.947Z,0.00
2018-07-07T00:58:19.944Z,0.00
2018-07-07T00:59:20.004Z,0.00
2018-07-07T01:01:13.005Z,0.00
2018-07-07T01:02:13.059Z,0.00
2018-07-07T01:04:06.062Z,0.00
2018-07-07T01:05:06.123Z,0.00
2018-07-07T01:06:59.120Z,0.00
2018-07-07T01:07:59.175Z,0.00
2018-07-07T01:09:52.166Z,0.00
2018-07-07T01:10:52.232Z,0.00
2018-07-07T01:12:45.233Z,0.00
2018-07-07T01:13:45.292Z,0.00
2018-07-07T01:15:38.281Z,0.00
2018-07-07T01:16:38.342Z,0.00
2018-07-07T01:18:31.346Z,0.00
2018-07-07T01:19:31.405Z,0.00
2018-07-07T01:21:24.410Z,0.00
2018-07-07T01:22:24.468Z,0.00
2018-07-07T01:24:17.459Z,0.00
2018-07-07T01:25:17.527Z,0.00
2018-07-07T01:27:10.538Z,0.00
2018-07-07T01:28:10.581Z,0.00
2018-07-07T01:30:03.570Z,0.00
2018-07-07T01:31:03.636Z,0.00
2018-07-07T01:32:56.631Z,0.00
2018-07-07T01:33:56.689Z,0.00
2018-07-07T01:35:49.697Z,0.00
2018-07-07T01:36:49.750Z,0.00
2018-07-07T01:38:42.751Z,0.00
2018-07-07T01:39:42.807Z,0.00
2018-07-07T01:41:35.807Z,0.00
2018-07-07T01:42:35.862Z,0.00
2018-07-07T01:44:28.862Z,0.00
2018-07-07T01:45:28.936Z,0.00
2018-07-07T01:47:21.923Z,0.00
2018-07-07T01:48:21.982Z,0.00
2018-07-07T01:50:14.989Z,0.00
2018-07-07T01:51:15.037Z,0.00
2018-07-07T01:53:08.037Z,0.00
2018-07-07T01:54:08.092Z,0.00
2018-07-07T01:56:01.087Z,0.00
2018-07-07T01:57:01.147Z,0.00
2018-07-07T01:58:54.148Z,0.00
2018-07-07T01:59:54.205Z,0.00
2018-07-07T02:01:47.206Z,0.00
2018-07-07T02:02:47.263Z,0.00
2018-07-07T02:04:40.264Z,0.00
2018-07-07T02:05:40.325Z,0.00
2018-07-07T02:07:33.324Z,0.00
2018-07-07T02:08:33.379Z,0.00
2018-07-07T02:10:26.416Z,0.00
2018-07-07T02:11:26.435Z,0.00
2018-07-07T02:13:19.442Z,0.00
2018-07-07T02:14:19.498Z,0.00
2018-07-07T02:16:12.495Z,0.00
2018-07-07T02:17:12.553Z,0.00
2018-07-07T02:19:05.554Z,0.00
2018-07-07T02:20:05.608Z,0.00
2018-07-07T02:21:58.620Z,0.00
2018-07-07T02:22:58.665Z,0.00
2018-07-07T02:24:51.657Z,0.00
2018-07-07T02:25:51.722Z,0.00
2018-07-07T02:27:44.721Z,0.00
2018-07-07T02:28:44.778Z,0.00
2018-07-07T02:30:37.775Z,0.00
2018-07-07T02:31:37.839Z,0.00
2018-07-07T02:33:30.833Z,0.00
2018-07-07T02:34:30.892Z,0.00
2018-07-07T02:36:25.412Z,0.00
2018-07-07T02:37:25.465Z,0.00
2018-07-07T02:39:18.470Z,0.00
2018-07-07T02:40:18.526Z,0.00
2018-07-07T02:42:11.519Z,0.00
2018-07-07T02:43:11.579Z,0.00
2018-07-07T02:45:04.579Z,0.00
2018-07-07T02:46:04.636Z,0.00
2018-07-07T02:47:57.642Z,0.00
2018-07-07T02:48:57.701Z,0.00
2018-07-07T02:50:50.691Z,0.00
2018-07-07T02:51:50.754Z,0.00
2018-07-07T02:53:43.754Z,0.00
2018-07-07T02:54:43.812Z,0.00
2018-07-07T02:56:36.804Z,0.00
2018-07-07T02:57:36.869Z,0.00
2018-07-07T02:59:29.867Z,0.00
2018-07-07T03:00:29.924Z,0.00
2018-07-07T03:02:22.923Z,0.00
2018-07-07T03:03:23.033Z,0.00
2018-07-07T03:05:15.981Z,0.00
2018-07-07T03:06:16.042Z,0.00
2018-07-07T03:08:09.032Z,0.00
2018-07-07T03:09:09.094Z,0.00
2018-07-07T03:11:02.097Z,0.00
2018-07-07T03:12:02.153Z,5.63
2018-07-07T03:13:55.151Z,5.63
2018-07-07T03:14:55.207Z,5.63
2018-07-07T03:16:48.197Z,5.63
2018-07-07T03:17:48.286Z,5.63
2018-07-07T03:19:41.260Z,5.63
2018-07-07T03:20:41.313Z,11.25
2018-07-07T03:22:34.309Z,11.25
2018-07-07T03:23:34.374Z,11.25
2018-07-07T03:25:27.376Z,11.25
2018-07-07T03:26:27.425Z,16.88
2018-07-07T03:28:20.421Z,16.88
2018-07-07T03:29:20.485Z,16.88
2018-07-07T03:31:13.484Z,22.50
2018-07-07T03:32:13.540Z,22.50
2018-07-07T03:34:06.553Z,22.50
2018-07-07T03:35:06.593Z,28.13
2018-07-07T03:37:00.096Z,28.13
2018-07-07T03:38:00.171Z,28.13
2018-07-07T03:39:53.157Z,33.75
2018-07-07T03:40:53.212Z,33.75
2018-07-07T03:42:46.203Z,33.75
2018-07-07T03:43:46.266Z,33.75
2018-07-07T03:45:39.265Z,39.38
2018-07-07T03:46:39.343Z,39.38
2018-07-07T03:48:32.310Z,39.38
2018-07-07T03:49:32.376Z,39.38
2018-07-07T03:51:25.373Z,45.00
2018-07-07T03:52:25.426Z,50.63
2018-07-07T03:54:18.438Z,56.25
2018-07-07T03:55:18.479Z,61.88
2018-07-07T03:57:11.470Z,67.50
2018-07-07T03:58:11.534Z,67.50
2018-07-07T04:00:04.531Z,73.13
2018-07-07T04:01:04.588Z,78.75
2018-07-07T04:02:57.576Z,78.75
2018-07-07T04:03:57.640Z,84.38
2018-07-07T04:05:50.638Z,90.00
2018-07-07T04:06:50.692Z,90.00
2018-07-07T04:08:43.682Z,90.00
2018-07-07T04:09:43.745Z,90.00
2018-07-07T04:11:36.742Z,95.63
2018-07-07T04:12:36.797Z,95.63
2018-07-07T04:14:29.816Z,101.25
2018-07-07T04:15:29.849Z,101.25
2018-07-07T04:17:22.840Z,106.88
2018-07-07T04:18:22.900Z,112.50
2018-07-07T04:20:15.900Z,118.13
2018-07-07T04:21:15.955Z,118.13
2018-07-07T04:23:08.945Z,129.38
2018-07-07T04:24:09.007Z,129.38
2018-07-07T04:26:02.017Z,129.38
2018-07-07T04:27:02.067Z,135.00
2018-07-07T04:28:55.059Z,140.63
2018-07-07T04:29:55.121Z,151.88
2018-07-07T04:31:48.128Z,168.75
2018-07-07T04:32:48.175Z,174.38
2018-07-07T04:34:41.164Z,180.00
2018-07-07T04:35:41.227Z,180.00
2018-07-07T04:37:34.225Z,180.00
2018-07-07T04:38:34.280Z,185.63
2018-07-07T04:40:27.277Z,191.25
2018-07-07T04:41:27.335Z,196.88
2018-07-07T04:43:20.332Z,213.75
2018-07-07T04:44:20.392Z,219.38
2018-07-07T04:46:13.389Z,225.00
2018-07-07T04:47:13.450Z,213.75
2018-07-07T04:49:06.438Z,191.25
2018-07-07T04:50:06.500Z,185.63
2018-07-07T04:51:59.496Z,185.63
2018-07-07T04:52:59.553Z,185.63
2018-07-07T04:54:52.548Z,191.25
2018-07-07T04:55:52.612Z,191.25
2018-07-07T04:57:45.615Z,196.88
2018-07-07T04:58:45.665Z,196.88
2018-07-07T05:00:38.671Z,208.13
2018-07-07T05:01:38.723Z,208.13
2018-07-07T05:03:31.717Z,225.00
2018-07-07T05:04:31.796Z,230.63
2018-07-07T05:06:24.776Z,236.25
2018-07-07T05:07:24.829Z,236.25
2018-07-07T05:09:17.821Z,236.25
2018-07-07T05:10:17.884Z,236.25
2018-07-07T05:12:10.881Z,247.50
2018-07-07T05:13:10.935Z,253.13
2018-07-07T05:15:03.945Z,298.13
2018-07-07T05:16:04.014Z,331.88
2018-07-07T05:17:57.060Z,376.88
2018-07-07T05:18:57.089Z,399.38
2018-07-07T05:20:50.056Z,427.50
2018-07-07T05:21:50.119Z,416.25
2018-07-07T05:23:43.117Z,343.13
2018-07-07T05:24:43.175Z,309.38
2018-07-07T05:26:36.176Z,292.50
2018-07-07T05:27:36.230Z,303.75
2018-07-07T05:29:29.227Z,320.63
2018-07-07T05:30:29.288Z,320.63
2018-07-07T05:32:22.288Z,326.25
2018-07-07T05:33:22.345Z,331.88
2018-07-07T05:35:15.341Z,331.88
2018-07-07T05:36:15.412Z,326.25
2018-07-07T05:38:08.404Z,326.25
2018-07-07T05:39:08.460Z,326.25
2018-07-07T05:41:01.452Z,337.50
2018-07-07T05:42:01.516Z,348.75
2018-07-07T05:43:54.516Z,348.75
2018-07-07T05:44:54.574Z,348.75
2018-07-07T05:46:47.574Z,337.50
2018-07-07T05:47:47.631Z,337.50
2018-07-07T05:49:40.622Z,337.50
2018-07-07T05:50:40.687Z,337.50
2018-07-07T05:52:33.693Z,337.50
2018-07-07T05:53:33.745Z,348.75
2018-07-07T05:55:26.737Z,360.00
2018-07-07T05:56:26.803Z,360.00
2018-07-07T05:58:19.804Z,365.63
2018-07-07T05:59:19.863Z,365.63
2018-07-07T06:01:12.854Z,376.88
2018-07-07T06:02:12.924Z,376.88
2018-07-07T06:04:05.921Z,388.13
2018-07-07T06:05:05.979Z,393.75
2018-07-07T06:06:58.978Z,410.63
2018-07-07T06:07:59.035Z,416.25
2018-07-07T06:09:52.027Z,427.50
2018-07-07T06:10:52.095Z,433.13
2018-07-07T06:12:45.092Z,450.00
2018-07-07T06:13:45.148Z,455.63
2018-07-07T06:15:38.142Z,489.38
2018-07-07T06:16:38.206Z,517.50
2018-07-07T06:18:31.722Z,585.00
2018-07-07T06:19:31.774Z,618.75
2018-07-07T06:21:24.770Z,675.00
2018-07-07T06:22:24.848Z,916.88
2018-07-07T06:24:17.831Z,2548.13
2018-07-07T06:25:17.889Z,2610.00
2018-07-07T06:27:10.889Z,2396.25
2018-07-07T06:28:10.947Z,2598.75
2018-07-07T06:30:03.948Z,2688.75
2018-07-07T06:31:04.014Z,2536.88
2018-07-07T06:32:57.021Z,2452.50
2018-07-07T06:33:57.104Z,2593.13
2018-07-07T06:35:50.082Z,2930.63
2018-07-07T06:36:50.150Z,2936.25
2018-07-07T06:38:43.159Z,2868.75
2018-07-07T06:39:43.218Z,2908.13
2018-07-07T06:41:36.230Z,3133.13
2018-07-07T06:42:36.292Z,3206.25
2018-07-07T06:44:29.312Z,2840.63
2018-07-07T06:45:29.371Z,3082.50
2018-07-07T06:47:22.378Z,2986.88
2018-07-07T06:48:22.444Z,3183.75
2018-07-07T06:50:15.699Z,3166.88
2018-07-07T06:51:15.787Z,3189.38
2018-07-07T06:53:08.601Z,3448.13
2018-07-07T06:54:08.607Z,3448.13
2018-07-07T06:56:01.630Z,3470.63
2018-07-07T06:57:01.989Z,3532.50
2018-07-07T06:58:54.709Z,3510.00
2018-07-07T06:59:54.817Z,3532.50
2018-07-07T07:01:47.794Z,3481.88
2018-07-07T07:02:47.856Z,3465.00
2018-07-07T07:04:40.881Z,3594.38
2018-07-07T07:05:40.958Z,3566.25
2018-07-07T07:07:33.972Z,3740.63
2018-07-07T07:08:34.050Z,3712.50
2018-07-07T07:10:27.064Z,3701.25
2018-07-07T07:11:27.133Z,3723.75
2018-07-07T07:13:20.160Z,3858.75
2018-07-07T07:14:20.234Z,3965.63
2018-07-07T07:16:13.248Z,3780.00
2018-07-07T07:17:13.319Z,3802.50
2018-07-07T07:19:06.345Z,4005.00
2018-07-07T07:20:06.422Z,4083.75
2018-07-07T07:21:59.434Z,3954.38
2018-07-07T07:22:59.510Z,3971.25
2018-07-07T07:24:52.533Z,3830.63
2018-07-07T07:25:52.626Z,3836.25
2018-07-07T07:27:45.618Z,3937.50
2018-07-07T07:28:45.694Z,4095.00
2018-07-07T07:30:38.719Z,3915.00
2018-07-07T07:31:38.789Z,3982.50
2018-07-07T07:33:31.806Z,3920.63
2018-07-07T07:34:31.884Z,4095.00
2018-07-07T07:36:24.908Z,4089.38
2018-07-07T07:37:24.978Z,4190.63
2018-07-07T07:39:18.006Z,4280.63
2018-07-07T07:40:18.076Z,4145.63
2018-07-07T07:42:11.097Z,3886.88
2018-07-07T07:43:11.190Z,4050.00
2018-07-07T07:45:04.202Z,4196.25
2018-07-07T07:46:04.275Z,4168.13
2018-07-07T07:47:57.293Z,4421.25
2018-07-07T07:48:57.374Z,4179.38
2018-07-07T07:50:50.400Z,4421.25
2018-07-07T07:51:50.475Z,4477.50
2018-07-07T07:53:43.496Z,4033.13
2018-07-07T07:54:43.576Z,4134.38
2018-07-07T07:56:36.602Z,4640.63
2018-07-07T07:57:36.675Z,4741.88
2018-07-07T07:59:29.712Z,4477.50
2018-07-07T08:00:29.787Z,4629.38
2018-07-07T08:02:22.814Z,4111.88
2018-07-07T08:03:22.894Z,4269.38
2018-07-07T08:05:15.925Z,4359.38
2018-07-07T08:06:15.997Z,4488.75
2018-07-07T08:08:09.026Z,4590.00
2018-07-07T08:09:09.109Z,4365.00
2018-07-07T08:11:02.139Z,4522.50
2018-07-07T08:12:02.214Z,4685.63
2018-07-07T08:13:55.238Z,4663.13
2018-07-07T08:14:55.323Z,4685.63
2018-07-07T08:16:48.357Z,4308.75
2018-07-07T08:17:48.427Z,4680.00
2018-07-07T08:19:41.454Z,4348.13
2018-07-07T08:20:41.535Z,4235.63
2018-07-07T08:22:34.593Z,4483.13
2018-07-07T08:23:34.642Z,4561.88
2018-07-07T08:25:27.675Z,4258.13
2018-07-07T08:26:27.749Z,4224.38
2018-07-07T08:28:20.822Z,4269.38
2018-07-07T08:29:20.859Z,4297.50
2018-07-07T08:31:13.894Z,4691.25
2018-07-07T08:32:13.967Z,4528.13
2018-07-07T08:34:06.996Z,4550.63
2018-07-07T08:35:07.077Z,4460.63
2018-07-07T08:37:00.112Z,4460.63
2018-07-07T08:38:00.187Z,4680.00
2018-07-07T08:39:53.212Z,4657.50
2018-07-07T08:40:53.296Z,4528.13
2018-07-07T08:42:46.329Z,4758.75
2018-07-07T08:43:46.405Z,4623.75
2018-07-07T08:45:39.434Z,3881.25
2018-07-07T08:46:39.515Z,3695.63
2018-07-07T08:48:32.532Z,4213.13
2018-07-07T08:49:32.612Z,4590.00
2018-07-07T08:51:25.645Z,1546.88
2018-07-07T08:52:25.720Z,1327.50
2018-07-07T08:54:18.746Z,1726.88
2018-07-07T08:55:18.870Z,4398.75
2018-07-07T08:57:11.862Z,2655.00
2018-07-07T08:58:11.931Z,1760.63
2018-07-07T09:00:04.954Z,4308.75
2018-07-07T09:01:05.037Z,4612.50
2018-07-07T09:02:58.570Z,4561.88
2018-07-07T09:03:58.640Z,4460.63
2018-07-07T09:05:51.681Z,4916.25
2018-07-07T09:06:51.746Z,4865.63
2018-07-07T09:08:44.771Z,4713.75
2018-07-07T09:09:44.851Z,4758.75
2018-07-07T09:11:37.887Z,4803.75
2018-07-07T09:12:37.955Z,4978.13
2018-07-07T09:14:30.986Z,5107.50
2018-07-07T09:15:31.063Z,4893.75
2018-07-07T09:17:24.098Z,4387.50
2018-07-07T09:18:24.170Z,4612.50
2018-07-07T09:20:17.197Z,4854.38
2018-07-07T09:21:17.290Z,4404.38
2018-07-07T09:23:10.308Z,4938.75
2018-07-07T09:24:10.384Z,4893.75
2018-07-07T09:26:03.415Z,5011.88
2018-07-07T09:27:03.497Z,4573.13
2018-07-07T09:28:56.545Z,4629.38
2018-07-07T09:29:56.620Z,4708.13
2018-07-07T09:31:49.657Z,5023.13
2018-07-07T09:32:49.732Z,4781.25
2018-07-07T09:34:42.771Z,3262.50
2018-07-07T09:35:42.842Z,1546.88
2018-07-07T09:37:35.876Z,506.25
2018-07-07T09:38:35.953Z,455.63
2018-07-07T09:40:28.980Z,427.50
2018-07-07T09:41:29.059Z,427.50
2018-07-07T09:43:22.107Z,438.75
2018-07-07T09:44:22.174Z,489.38
2018-07-07T09:46:15.192Z,506.25
2018-07-07T09:47:15.271Z,433.13
2018-07-07T09:49:08.295Z,466.88
2018-07-07T09:50:08.365Z,444.38
2018-07-07T09:52:01.387Z,444.38
2018-07-07T09:53:01.456Z,444.38
2018-07-07T09:54:54.470Z,427.50
2018-07-07T09:55:54.544Z,416.25
2018-07-07T09:57:47.569Z,421.88
2018-07-07T09:58:47.640Z,427.50
2018-07-07T10:00:40.650Z,416.25
2018-07-07T10:01:40.724Z,410.63
2018-07-07T10:03:34.250Z,388.13
2018-07-07T10:04:34.318Z,382.50
2018-07-07T10:06:27.325Z,371.25
2018-07-07T10:07:27.416Z,365.63
2018-07-07T10:09:20.412Z,365.63
2018-07-07T10:10:20.481Z,354.38
2018-07-07T10:12:13.506Z,354.38
2018-07-07T10:13:13.564Z,343.13
2018-07-07T10:15:06.572Z,320.63
2018-07-07T10:16:06.641Z,337.50
2018-07-07T10:17:59.663Z,337.50
2018-07-07T10:18:59.731Z,337.50
2018-07-07T10:20:52.740Z,337.50
2018-07-07T10:21:52.811Z,337.50
2018-07-07T10:23:45.828Z,337.50
2018-07-07T10:24:45.896Z,337.50
2018-07-07T10:26:38.904Z,331.88
2018-07-07T10:27:38.974Z,331.88
2018-07-07T10:29:31.988Z,331.88
2018-07-07T10:30:32.053Z,331.88
2018-07-07T10:32:25.062Z,337.50
2018-07-07T10:33:25.136Z,354.38
2018-07-07T10:35:18.147Z,326.25
2018-07-07T10:36:18.215Z,320.63
2018-07-07T10:38:11.272Z,309.38
2018-07-07T10:39:11.287Z,309.38
2018-07-07T10:41:04.292Z,315.00
2018-07-07T10:42:04.362Z,315.00
2018-07-07T10:43:57.371Z,315.00
2018-07-07T10:44:57.438Z,315.00
2018-07-07T10:46:50.488Z,320.63
2018-07-07T10:47:50.739Z,331.88
2018-07-07T10:49:43.529Z,326.25
2018-07-07T10:50:43.592Z,331.88
2018-07-07T10:52:36.599Z,331.88
2018-07-07T10:53:36.670Z,331.88
2018-07-07T10:55:29.711Z,331.88
2018-07-07T10:56:29.747Z,331.88
2018-07-07T10:58:22.758Z,315.00
2018-07-07T10:59:22.822Z,309.38
2018-07-07T11:01:15.826Z,320.63
2018-07-07T11:02:15.900Z,309.38
2018-07-07T11:04:08.935Z,298.13
2018-07-07T11:05:08.974Z,292.50
2018-07-07T11:07:01.978Z,286.88
2018-07-07T11:08:02.048Z,281.25
2018-07-07T11:09:55.063Z,281.25
2018-07-07T11:10:55.124Z,281.25
2018-07-07T11:12:48.130Z,281.25
2018-07-07T11:13:48.197Z,281.25
2018-07-07T11:15:41.207Z,275.63
2018-07-07T11:16:41.270Z,275.63
2018-07-07T11:18:34.284Z,270.00
2018-07-07T11:19:34.347Z,270.00
2018-07-07T11:21:27.354Z,281.25
2018-07-07T11:22:27.426Z,281.25
2018-07-07T11:24:20.437Z,292.50
2018-07-07T11:25:20.497Z,303.75
2018-07-07T11:27:13.503Z,315.00
2018-07-07T11:28:13.573Z,303.75
2018-07-07T11:30:06.582Z,292.50
2018-07-07T11:31:06.646Z,286.88
2018-07-07T11:32:59.654Z,281.25
2018-07-07T11:33:59.719Z,286.88
2018-07-07T11:35:52.738Z,286.88
2018-07-07T11:36:52.827Z,286.88
2018-07-07T11:38:45.802Z,281.25
2018-07-07T11:39:45.865Z,281.25
2018-07-07T11:41:38.871Z,275.63
2018-07-07T11:42:38.942Z,275.63
2018-07-07T11:44:31.953Z,258.75
2018-07-07T11:45:32.015Z,264.38
2018-07-07T11:47:25.020Z,281.25
2018-07-07T11:48:25.088Z,275.63
2018-07-07T11:50:18.173Z,270.00
2018-07-07T11:51:18.160Z,281.25
2018-07-07T11:53:11.165Z,275.63
2018-07-07T11:54:11.235Z,258.75
2018-07-07T11:56:04.239Z,270.00
2018-07-07T11:57:04.305Z,281.25
2018-07-07T11:58:57.311Z,298.13
2018-07-07T11:59:57.377Z,303.75
2018-07-07T12:01:50.400Z,281.25
2018-07-07T12:02:50.454Z,270.00
2018-07-07T12:04:43.618Z,309.38
2018-07-07T12:05:43.527Z,320.63
2018-07-07T12:07:37.040Z,303.75
2018-07-07T12:08:37.108Z,275.63
2018-07-07T12:10:30.120Z,303.75
2018-07-07T12:11:30.265Z,298.13
2018-07-07T12:13:23.190Z,303.75
2018-07-07T12:14:23.254Z,315.00
2018-07-07T12:16:16.287Z,298.13
2018-07-07T12:17:16.334Z,281.25
2018-07-07T12:19:09.341Z,281.25
2018-07-07T12:20:09.407Z,281.25
2018-07-07T12:22:02.437Z,275.63
2018-07-07T12:23:02.479Z,281.25
2018-07-07T12:24:55.601Z,298.13
2018-07-07T12:25:55.550Z,303.75
2018-07-07T12:27:48.551Z,303.75
2018-07-07T12:28:48.622Z,286.88
2018-07-07T12:30:41.628Z,270.00
2018-07-07T12:31:41.698Z,270.00
2018-07-07T12:33:34.689Z,292.50
2018-07-07T12:34:34.775Z,303.75
2018-07-07T12:36:27.776Z,382.50
2018-07-07T12:37:27.915Z,405.00
2018-07-07T12:39:20.879Z,410.63
2018-07-07T12:40:20.932Z,376.88
2018-07-07T12:42:13.953Z,337.50
2018-07-07T12:43:13.998Z,326.25
2018-07-07T12:45:07.011Z,292.50
2018-07-07T12:46:07.073Z,292.50
2018-07-07T12:48:00.076Z,298.13
2018-07-07T12:49:00.143Z,298.13
2018-07-07T12:50:53.158Z,292.50
2018-07-07T12:51:53.229Z,298.13
2018-07-07T12:53:46.225Z,281.25
2018-07-07T12:54:46.297Z,275.63
2018-07-07T12:56:39.302Z,292.50
2018-07-07T12:57:39.546Z,286.88
2018-07-07T12:59:32.369Z,298.13
2018-07-07T13:00:32.435Z,309.38
2018-07-07T13:02:25.457Z,343.13
2018-07-07T13:03:25.520Z,343.13
2018-07-07T13:05:18.534Z,309.38
2018-07-07T13:06:18.601Z,309.38
2018-07-07T13:08:11.599Z,331.88
2018-07-07T13:09:11.669Z,337.50
2018-07-07T13:11:04.685Z,315.00
2018-07-07T13:12:04.739Z,303.75
2018-07-07T13:13:57.752Z,292.50
2018-07-07T13:14:57.843Z,286.88
2018-07-07T13:16:50.824Z,281.25
2018-07-07T13:17:50.887Z,275.63
2018-07-07T13:19:43.895Z,270.00
2018-07-07T13:20:43.973Z,247.50
2018-07-07T13:22:36.989Z,286.88
2018-07-07T13:23:37.038Z,286.88
2018-07-07T13:25:30.062Z,264.38
2018-07-07T13:26:30.197Z,258.75
2018-07-07T13:28:23.117Z,275.63
2018-07-07T13:29:23.190Z,264.38
2018-07-07T13:31:16.225Z,258.75
2018-07-07T13:32:16.292Z,258.75
2018-07-07T13:34:09.289Z,258.75
2018-07-07T13:35:09.358Z,258.75
2018-07-07T13:37:02.367Z,264.38
2018-07-07T13:38:02.429Z,264.38
2018-07-07T13:39:55.434Z,270.00
2018-07-07T13:40:55.500Z,270.00
2018-07-07T13:42:49.017Z,275.63
2018-07-07T13:43:49.077Z,275.63
2018-07-07T13:45:42.105Z,253.13
2018-07-07T13:46:42.158Z,247.50
2018-07-07T13:48:35.157Z,270.00
2018-07-07T13:49:35.227Z,264.38
2018-07-07T13:51:28.244Z,253.13
2018-07-07T13:52:28.299Z,253.13
2018-07-07T13:54:21.303Z,213.75
2018-07-07T13:55:21.373Z,241.88
2018-07-07T13:57:14.384Z,236.25
2018-07-07T13:58:14.445Z,241.88
2018-07-07T14:00:07.449Z,247.50
2018-07-07T14:01:07.522Z,247.50
2018-07-07T14:03:00.533Z,247.50
2018-07-07T14:04:00.594Z,247.50
2018-07-07T14:05:53.594Z,241.88
2018-07-07T14:06:53.665Z,241.88
2018-07-07T14:08:46.670Z,236.25
2018-07-07T14:09:46.734Z,236.25
2018-07-07T14:11:39.748Z,258.75
2018-07-07T14:12:39.801Z,241.88
2018-07-07T14:14:32.811Z,230.63
2018-07-07T14:15:32.872Z,253.13
2018-07-07T14:17:25.911Z,208.13
2018-07-07T14:18:25.945Z,219.38
2018-07-07T14:20:18.945Z,225.00
2018-07-07T14:21:19.014Z,225.00
2018-07-07T14:23:12.021Z,236.25
2018-07-07T14:24:12.084Z,236.25
2018-07-07T14:26:05.093Z,236.25
2018-07-07T14:27:05.156Z,230.63
2018-07-07T14:28:58.162Z,236.25
2018-07-07T14:29:58.225Z,236.25
2018-07-07T14:31:51.264Z,247.50
2018-07-07T14:32:51.294Z,253.13
2018-07-07T14:34:44.302Z,247.50
2018-07-07T14:35:44.364Z,241.88
2018-07-07T14:37:37.373Z,236.25
2018-07-07T14:38:37.438Z,236.25
2018-07-07T14:40:30.440Z,241.88
2018-07-07T14:41:30.506Z,236.25
2018-07-07T14:43:24.022Z,230.63
2018-07-07T14:44:24.081Z,225.00
2018-07-07T14:46:17.082Z,225.00
2018-07-07T14:47:17.153Z,225.00
2018-07-07T14:49:10.167Z,225.00
2018-07-07T14:50:10.245Z,230.63
2018-07-07T14:52:03.255Z,230.63
2018-07-07T14:53:03.301Z,236.25
2018-07-07T14:54:56.302Z,236.25
2018-07-07T14:55:56.370Z,230.63
2018-07-07T14:57:49.377Z,225.00
2018-07-07T14:58:49.441Z,225.00
2018-07-07T15:00:42.436Z,236.25
2018-07-07T15:01:42.510Z,236.25
2018-07-07T15:03:35.525Z,230.63
2018-07-07T15:04:35.587Z,225.00
2018-07-07T15:06:28.590Z,219.38
2018-07-07T15:07:28.655Z,230.63
2018-07-07T15:09:21.670Z,225.00
2018-07-07T15:10:21.736Z,225.00
2018-07-07T15:12:14.741Z,213.75
2018-07-07T15:13:14.806Z,219.38
2018-07-07T15:15:07.810Z,219.38
2018-07-07T15:16:07.874Z,219.38
2018-07-07T15:18:00.879Z,225.00
2018-07-07T15:19:00.943Z,225.00
2018-07-07T15:20:53.947Z,219.38
2018-07-07T15:21:54.013Z,219.38
2018-07-07T15:23:47.021Z,225.00
2018-07-07T15:24:47.082Z,219.38
2018-07-07T15:26:40.088Z,219.38
2018-07-07T15:27:40.154Z,219.38
2018-07-07T15:29:33.167Z,230.63
2018-07-07T15:30:33.233Z,219.38
2018-07-07T15:32:26.234Z,219.38
2018-07-07T15:33:26.305Z,191.25
2018-07-07T15:35:19.311Z,208.13
2018-07-07T15:36:19.372Z,225.00
2018-07-07T15:38:12.381Z,208.13
2018-07-07T15:39:12.456Z,225.00
2018-07-07T15:41:05.449Z,219.38
2018-07-07T15:42:05.517Z,219.38
2018-07-07T15:43:58.525Z,225.00
2018-07-07T15:44:58.587Z,225.00
2018-07-07T15:46:51.593Z,208.13
2018-07-07T15:47:51.661Z,219.38
2018-07-07T15:49:44.674Z,219.38
2018-07-07T15:50:44.739Z,219.38
2018-07-07T15:52:37.742Z,225.00
2018-07-07T15:53:37.808Z,225.00
2018-07-07T15:55:30.818Z,225.00
2018-07-07T15:56:30.877Z,225.00
2018-07-07T15:58:23.879Z,230.63
2018-07-07T15:59:23.948Z,230.63
2018-07-07T16:01:16.953Z,230.63
2018-07-07T16:02:17.015Z,230.63
2018-07-07T16:04:10.025Z,230.63
2018-07-07T16:05:10.083Z,230.63
2018-07-07T16:07:03.089Z,230.63
2018-07-07T16:08:03.152Z,225.00
2018-07-07T16:09:56.228Z,225.00
2018-07-07T16:10:56.223Z,225.00
2018-07-07T16:12:49.223Z,225.00
2018-07-07T16:13:49.291Z,230.63
2018-07-07T16:15:42.303Z,230.63
2018-07-07T16:16:42.359Z,236.25
2018-07-07T16:18:35.366Z,236.25
2018-07-07T16:19:35.432Z,236.25
2018-07-07T16:21:28.437Z,241.88
2018-07-07T16:22:28.500Z,247.50
2018-07-07T16:24:21.513Z,241.88
2018-07-07T16:25:21.581Z,247.50
2018-07-07T16:27:14.577Z,247.50
2018-07-07T16:28:14.643Z,247.50
2018-07-07T16:30:07.653Z,247.50
2018-07-07T16:31:07.726Z,247.50
2018-07-07T16:33:00.715Z,247.50
2018-07-07T16:34:00.786Z,241.88
2018-07-07T16:35:53.798Z,241.88
2018-07-07T16:36:53.860Z,241.88
2018-07-07T16:38:46.867Z,247.50
2018-07-07T16:39:47.204Z,247.50
2018-07-07T16:41:39.944Z,247.50
2018-07-07T16:42:40.008Z,247.50
2018-07-07T16:44:33.006Z,241.88
2018-07-07T16:45:33.067Z,247.50
2018-07-07T16:47:26.083Z,241.88
2018-07-07T16:48:26.143Z,236.25
2018-07-07T16:50:19.151Z,236.25
2018-07-07T16:51:19.213Z,241.88
2018-07-07T16:53:12.217Z,247.50
2018-07-07T16:54:12.286Z,241.88
2018-07-07T16:56:05.302Z,241.88
2018-07-07T16:57:05.357Z,236.25
2018-07-07T16:58:58.359Z,230.63
2018-07-07T16:59:58.428Z,230.63
2018-07-07T17:01:51.473Z,230.63
2018-07-07T17:02:51.499Z,225.00
2018-07-07T17:04:44.502Z,219.38
2018-07-07T17:05:44.568Z,213.75
2018-07-07T17:07:37.579Z,213.75
2018-07-07T17:08:37.634Z,213.75
2018-07-07T17:10:30.654Z,208.13
2018-07-07T17:11:30.707Z,202.50
2018-07-07T17:13:23.705Z,191.25
2018-07-07T17:14:23.778Z,191.25
2018-07-07T17:16:16.781Z,191.25
2018-07-07T17:17:16.845Z,185.63
2018-07-07T17:19:09.849Z,180.00
2018-07-07T17:20:09.932Z,185.63
2018-07-07T17:22:02.929Z,185.63
2018-07-07T17:23:02.990Z,185.63
2018-07-07T17:24:55.995Z,185.63
2018-07-07T17:25:56.059Z,180.00
2018-07-07T17:27:49.065Z,185.63
2018-07-07T17:28:49.127Z,191.25
2018-07-07T17:30:42.138Z,196.88
2018-07-07T17:31:42.201Z,191.25
2018-07-07T17:33:35.196Z,185.63
2018-07-07T17:34:35.264Z,191.25
2018-07-07T17:36:28.275Z,185.63
2018-07-07T17:37:28.343Z,185.63
2018-07-07T17:39:21.339Z,185.63
2018-07-07T17:40:21.407Z,180.00
2018-07-07T17:42:14.455Z,174.38
2018-07-07T17:43:14.476Z,174.38
2018-07-07T17:45:07.486Z,168.75
2018-07-07T17:46:07.563Z,168.75
2018-07-07T17:48:00.565Z,163.13
2018-07-07T17:49:00.622Z,157.50
2018-07-07T17:50:53.642Z,157.50
2018-07-07T17:51:53.691Z,157.50
2018-07-07T17:53:46.696Z,151.88
2018-07-07T17:54:46.760Z,146.25
2018-07-07T17:56:39.770Z,140.63
2018-07-07T17:57:39.828Z,140.63
2018-07-07T17:59:32.823Z,135.00
2018-07-07T18:00:32.898Z,135.00
2018-07-07T18:02:25.911Z,135.00
2018-07-07T18:03:25.975Z,135.00
2018-07-07T18:05:18.980Z,135.00
2018-07-07T18:06:19.046Z,135.00
2018-07-07T18:08:12.054Z,135.00